Time;durP1;ratioP1;P1;durP2;ratioP2;P2;SDS_P1;SDS_P2;PMS_P1;PMS_P2;Temp;Humidity;BMP_temperature;BMP_pressure;BME280_temperature;BME280_humidity;BME280_pressure;Samples;Min_cycle;Max_cycle;Signal;HPM_P1;HPM_P2
2022/07/21 00:01:57;;;;;;;6.22;3.53;;;22.30;99.90;;;22.77;100.00;101188.91;5167296;28;20513;-70
2022/07/21 00:04:31;;;;;;;6.10;3.40;;;22.20;99.90;;;22.78;100.00;101203.97;5167106;28;20050;-70
2022/07/21 00:07:03;;;;;;;4.47;2.78;;;22.20;99.90;;;22.78;100.00;101201.31;5167364;28;20117;-70
2022/07/21 00:09:35;;;;;;;5.15;2.88;;;22.30;99.90;;;22.78;100.00;101201.31;5166965;28;20407;-71
2022/07/21 00:12:08;;;;;;;4.45;2.80;;;22.20;99.90;;;22.78;100.00;101203.97;5167154;28;20042;-70
2022/07/21 00:14:40;;;;;;;6.30;2.92;;;22.30;99.90;;;22.74;100.00;101211.06;5167424;28;20403;-71
2022/07/21 00:17:12;;;;;;;5.47;3.03;;;22.20;99.90;;;22.71;100.00;101231.47;5166750;28;20042;-70
2022/07/21 00:19:46;;;;;;;5.30;3.40;;;22.10;99.90;;;22.68;100.00;101220.88;5167012;28;20342;-70
2022/07/21 00:22:18;;;;;;;5.25;3.17;;;22.10;99.90;;;22.66;100.00;101212.03;5167086;28;20057;-70
2022/07/21 00:24:50;;;;;;;5.15;2.92;;;22.10;99.90;;;22.63;100.00;101206.75;5167005;28;20050;-70
2022/07/21 00:27:22;;;;;;;5.40;2.72;;;22.10;99.90;;;22.59;100.00;101210.31;5166687;28;20045;-70
2022/07/21 00:29:54;;;;;;;4.72;3.00;;;22.00;99.90;;;22.55;100.00;101213.88;5167150;28;20042;-70
2022/07/21 00:32:26;;;;;;;5.40;3.13;;;22.00;99.90;;;22.49;100.00;101214.81;5165308;28;20064;-70
2022/07/21 00:35:00;;;;;;;7.72;4.13;;;22.00;99.90;;;22.40;100.00;101210.47;5165501;28;20627;-70
2022/07/21 00:37:32;;;;;;;6.65;3.47;;;21.90;99.90;;;22.38;100.00;101220.22;5166587;28;20046;-70
2022/07/21 00:40:06;;;;;;;5.47;3.08;;;21.90;99.90;;;22.39;100.00;101213.13;5166579;28;20046;-70
2022/07/21 00:42:38;;;;;;;6.25;3.40;;;21.90;99.90;;;22.37;100.00;101201.66;5166487;28;20047;-70
2022/07/21 00:45:13;;;;;;;5.28;3.33;;;21.90;99.90;;;22.35;100.00;101206.06;5166309;28;20049;-70
2022/07/21 00:47:46;;;;;;;5.85;3.40;;;21.80;99.90;;;22.35;100.00;101217.56;5166314;28;20419;-70
2022/07/21 00:50:21;;;;;;;4.85;3.08;;;21.80;99.90;;;22.37;100.00;101218.47;5166447;28;20152;-70
2022/07/21 00:52:53;;;;;;;5.57;3.25;;;21.80;99.90;;;22.34;100.00;101215.81;5166458;28;20050;-71
2022/07/21 00:55:25;;;;;;;7.05;3.65;;;21.80;99.90;;;22.31;100.00;101215.84;5166197;28;20384;-71
2022/07/21 00:57:58;;;;;;;5.68;3.35;;;21.80;99.90;;;22.27;100.00;101208.78;5166068;28;20042;-70
2022/07/21 01:00:31;;;;;;;5.53;2.95;;;21.80;99.90;;;22.24;100.00;101222.09;5165860;28;20046;-70
2022/07/21 01:03:04;;;;;;;5.57;2.88;;;21.70;99.90;;;22.23;100.00;101233.56;5166283;28;20165;-70
2022/07/21 01:05:38;;;;;;;5.45;3.08;;;21.70;99.90;;;22.25;100.00;101239.78;5165984;28;20506;-70
2022/07/21 01:08:10;;;;;;;6.35;3.15;;;21.70;99.90;;;22.27;100.00;101239.75;5164925;28;20074;-70
2022/07/21 01:10:42;;;;;;;5.25;3.03;;;21.70;99.90;;;22.26;100.00;101236.22;5165773;28;20054;-70
2022/07/21 01:13:14;;;;;;;4.97;3.17;;;21.70;99.90;;;22.21;100.00;101236.25;5165752;28;20550;-70
2022/07/21 01:15:46;;;;;;;5.07;3.00;;;21.70;99.90;;;22.21;100.00;101240.69;5165696;28;20522;-71
2022/07/21 01:18:19;;;;;;;5.13;2.90;;;21.70;99.90;;;22.20;100.00;101242.47;5165467;28;20054;-71
2022/07/21 01:20:55;;;;;;;5.53;3.28;;;21.70;99.90;;;22.15;100.00;101235.41;5165517;28;20522;-70
2022/07/21 01:23:29;;;;;;;6.43;3.60;;;21.70;99.90;;;22.09;100.00;101230.13;5165706;28;20503;-70
2022/07/21 01:26:01;;;;;;;8.05;3.90;;;21.60;99.90;;;22.01;100.00;101237.22;5165800;28;20507;-70
2022/07/21 01:28:33;;;;;;;6.32;3.53;;;21.50;99.90;;;21.92;100.00;101228.44;5165463;28;20046;-70
2022/07/21 01:31:05;;;;;;;6.22;3.53;;;21.50;99.90;;;21.87;100.00;101227.56;5165352;28;20046;-71
2022/07/21 01:33:37;;;;;;;6.50;3.28;;;21.50;99.90;;;21.87;100.00;101219.59;5165764;28;20053;-72
2022/07/21 01:36:09;;;;;;;5.20;3.50;;;21.40;99.90;;;21.88;100.00;101229.31;5165471;28;20113;-72
2022/07/21 01:41:33;;;;;;;6.47;3.38;;;21.40;99.90;;;21.88;100.00;101233.75;5165349;28;20511;-71
2022/07/21 01:44:08;;;;;;;6.80;3.38;;;21.40;99.90;;;21.89;100.00;101239.03;5165479;28;20073;-72
2022/07/21 01:46:43;;;;;;;6.45;3.78;;;21.40;99.90;;;21.89;100.00;101243.47;5165583;28;20058;-72
2022/07/21 01:49:19;;;;;;;6.47;3.83;;;21.40;99.90;;;21.90;100.00;101234.63;5163903;28;20050;-71
2022/07/21 01:51:52;;;;;;;6.82;4.20;;;21.40;99.90;;;21.85;100.00;101234.66;5165110;28;20129;-72
2022/07/21 01:54:25;;;;;;;6.85;3.97;;;21.40;99.90;;;21.86;100.00;101243.50;5165638;28;20049;-72
2022/07/21 01:56:57;;;;;;;7.32;4.22;;;21.40;99.90;;;21.88;100.00;101237.28;5164978;28;20053;-71
2022/07/21 01:59:29;;;;;;;7.28;4.18;;;21.40;99.90;;;21.89;100.00;101243.47;5165025;28;20074;-71
2022/07/21 02:02:01;;;;;;;5.50;3.58;;;21.40;99.90;;;21.90;100.00;101240.81;5164892;28;20052;-71
2022/07/21 02:04:34;;;;;;;8.10;4.00;;;21.40;99.90;;;21.88;100.00;101236.41;5165122;28;20046;-72
2022/07/21 02:07:06;;;;;;;6.40;4.20;;;21.40;99.90;;;21.89;100.00;101249.66;5163589;28;20495;-72
2022/07/21 02:09:40;;;;;;;8.23;4.75;;;21.40;99.90;;;21.91;100.00;101247.91;5165020;28;20121;-70
2022/07/21 02:12:12;;;;;;;8.23;4.60;;;21.40;99.90;;;21.89;100.00;101241.69;5164936;28;20046;-70
2022/07/21 02:14:44;;;;;;;8.50;4.90;;;21.40;99.90;;;21.93;100.00;101239.94;5164830;28;20050;-71
2022/07/21 02:17:17;;;;;;;8.40;4.28;;;21.50;99.90;;;21.93;100.00;101243.47;5163333;28;20410;-71
2022/07/21 02:19:49;;;;;;;8.40;4.25;;;21.40;99.90;;;21.93;100.00;101240.81;5164911;28;20073;-71
2022/07/21 02:22:21;;;;;;;8.30;4.55;;;21.50;99.90;;;21.91;100.00;101236.41;5164979;28;20569;-71
2022/07/21 02:24:54;;;;;;;9.90;4.75;;;21.40;99.90;;;21.92;100.00;101231.09;5164907;28;20051;-71
2022/07/21 02:27:27;;;;;;;9.52;5.13;;;21.40;99.90;;;21.90;100.00;101230.19;5164676;28;20406;-70
2022/07/21 02:29:59;;;;;;;8.75;4.85;;;21.40;99.90;;;21.89;100.00;101232.84;5164852;28;20046;-70
2022/07/21 02:32:31;;;;;;;8.18;4.38;;;21.40;99.90;;;21.87;100.00;101235.53;5164784;28;20046;-72
2022/07/21 02:35:04;;;;;;;8.27;4.53;;;21.40;99.90;;;21.86;100.00;101232.88;5164825;28;20046;-70
2022/07/21 02:37:37;;;;;;;7.78;4.97;;;21.40;99.90;;;21.84;100.00;101230.25;5164426;28;20080;-72
2022/07/21 02:40:11;;;;;;;8.27;5.07;;;21.30;99.90;;;21.81;100.00;101224.94;5164781;28;20046;-72
2022/07/21 02:42:43;;;;;;;6.78;4.40;;;21.30;99.90;;;21.82;100.00;101224.03;5164568;28;20053;-71
2022/07/21 02:45:15;;;;;;;7.95;4.22;;;21.30;99.90;;;21.80;100.00;101217.00;5165258;28;20074;-71
2022/07/21 02:47:57;;;;;;;8.45;4.70;;;21.30;99.90;;;21.76;100.00;101213.44;5163144;28;20122;-71
2022/07/21 02:50:34;;;;;;;8.27;4.68;;;21.30;99.90;;;21.73;100.00;101205.53;5164608;28;20571;-71
2022/07/21 02:53:09;;;;;;;9.50;5.05;;;21.30;99.90;;;21.68;100.00;101197.56;5164656;28;20042;-71
2022/07/21 02:55:42;;;;;;;7.97;4.65;;;21.20;99.90;;;21.61;100.00;101210.88;5164605;28;20109;-71
2022/07/21 02:58:17;;;;;;;7.25;4.03;;;21.20;99.90;;;21.57;100.00;101214.41;5164550;28;20503;-71
2022/07/21 03:00:51;;;;;;;10.35;4.97;;;21.10;99.90;;;21.56;100.00;101221.50;5164569;28;20034;-71
2022/07/21 03:03:25;;;;;;;;;;;21.10;99.90;;;21.50;100.00;101220.63;5164887;28;20039;-71
2022/07/21 03:05:58;;;;;;;9.90;4.90;;;21.10;99.90;;;21.48;100.00;101217.13;5164346;28;19922;-71
2022/07/21 03:08:31;;;;;;;7.72;4.45;;;21.00;99.90;;;21.46;100.00;101208.28;5164703;28;20323;-71
2022/07/21 03:11:05;;;;;;;10.65;5.88;;;21.00;99.90;;;21.45;100.00;101201.19;5164367;28;20046;-72
2022/07/21 03:13:37;;;;;;;9.07;5.32;;;21.00;99.90;;;21.43;100.00;101190.59;5164496;28;20052;-70
2022/07/21 03:16:09;;;;;;;9.07;4.97;;;21.00;99.90;;;21.42;100.00;101193.28;5164223;28;20042;-70
2022/07/21 03:18:42;;;;;;;7.97;4.68;;;21.00;99.90;;;21.38;100.00;101195.03;5164285;28;20070;-71
2022/07/21 03:21:14;;;;;;;9.95;5.10;;;20.90;99.90;;;21.37;100.00;101196.81;5164265;28;20042;-71
2022/07/21 03:23:46;;;;;;;8.10;4.68;;;20.90;99.90;;;21.40;100.00;101203.88;5164362;28;20050;-71
2022/07/21 03:26:20;;;;;;;8.50;4.63;;;21.00;99.90;;;21.40;100.00;101202.13;5164418;28;20042;-71
2022/07/21 03:28:52;;;;;;;7.20;4.43;;;21.00;99.90;;;21.42;100.00;101194.16;5164215;28;20066;-72
2022/07/21 03:31:24;;;;;;;8.60;4.20;;;21.00;99.90;;;21.43;100.00;101201.22;5166510;28;20050;-71
2022/07/21 03:33:56;;;;;;;9.52;4.28;;;21.00;99.90;;;21.42;100.00;101195.91;5167744;28;20038;-72
2022/07/21 03:36:28;;;;;;;7.88;4.22;;;21.00;99.90;;;21.45;100.00;101203.84;5167827;28;20046;-71
2022/07/21 03:39:00;;;;;;;6.85;4.03;;;21.00;99.90;;;21.42;100.00;101195.91;5168061;28;20073;-72
2022/07/21 03:41:34;;;;;;;7.75;4.05;;;21.00;99.90;;;21.40;100.00;101204.75;5177349;28;20045;-72
2022/07/21 03:44:06;;;;;;;7.75;4.20;;;21.00;99.90;;;21.40;100.00;101207.41;5176726;28;20045;-71
2022/07/21 03:46:38;;;;;;;8.20;4.47;;;20.90;99.90;;;21.43;100.00;101208.28;5188211;28;20088;-71
2022/07/21 03:49:10;;;;;;;8.98;4.45;;;20.90;99.90;;;21.42;100.00;101220.66;5187866;28;20130;-72
2022/07/21 03:51:43;;;;;;;7.00;4.10;;;21.00;99.90;;;21.42;100.00;101209.19;5181942;28;20408;-71
2022/07/21 03:54:15;;;;;;;8.68;4.75;;;20.90;99.90;;;21.38;100.00;101203.88;5181324;28;20053;-72
2022/07/21 03:56:48;;;;;;;7.90;4.95;;;20.90;99.90;;;21.34;100.00;101191.53;5183956;28;20041;-72
2022/07/21 03:59:20;;;;;;;6.32;4.05;;;20.90;99.90;;;21.33;100.00;101195.06;5175638;28;20050;-72
2022/07/21 04:01:53;;;;;;;7.10;4.30;;;20.90;99.90;;;21.32;100.00;101188.00;5176235;28;20410;-71
2022/07/21 04:04:25;;;;;;;6.65;4.07;;;20.80;99.90;;;21.31;100.00;101178.25;5177591;28;20073;-72
2022/07/21 04:06:57;;;;;;;9.88;4.93;;;20.90;99.90;;;21.30;100.00;101181.81;5233657;22;20034;-72
2022/07/21 04:09:31;;;;;;;5.95;3.55;;;20.80;99.90;;;21.28;100.00;101186.25;5228676;28;20084;-73
2022/07/21 04:12:05;;;;;;;6.72;4.28;;;20.80;99.90;;;21.26;100.00;101172.09;5228776;28;20044;-72
2022/07/21 04:14:37;;;;;;;7.75;3.78;;;20.80;99.90;;;21.25;100.00;101175.59;5228763;28;20041;-72
2022/07/21 04:17:09;;;;;;;4.88;3.38;;;20.80;99.90;;;21.25;100.00;101180.88;5227338;28;20051;-72
2022/07/21 04:19:41;;;;;;;6.70;3.85;;;20.80;99.90;;;21.26;100.00;101176.50;5228700;28;20121;-72
2022/07/21 04:22:13;;;;;;;9.38;5.22;;;20.80;99.90;;;21.26;100.00;101179.16;5228378;28;20073;-72
2022/07/21 04:24:45;;;;;;;7.18;4.00;;;20.80;99.90;;;21.28;100.00;101178.28;5228430;28;20049;-72
2022/07/21 04:27:19;;;;;;;7.63;4.57;;;20.80;99.90;;;21.29;100.00;101176.50;5228470;28;20116;-73
2022/07/21 04:29:51;;;;;;;6.72;3.45;;;20.80;99.90;;;21.31;100.00;101180.03;5228400;28;20116;-72
2022/07/21 04:32:24;;;;;;;7.28;3.90;;;20.80;99.90;;;21.35;100.00;101177.38;5228387;28;20052;-73
2022/07/21 04:34:56;;;;;;;6.75;3.67;;;20.90;99.90;;;21.38;100.00;101190.59;5228374;28;20107;-72
2022/07/21 04:37:28;;;;;;;8.02;3.90;;;20.90;99.90;;;21.42;100.00;101182.66;5228185;28;20136;-71
2022/07/21 04:40:01;;;;;;;6.93;3.65;;;20.90;99.90;;;21.45;100.00;101182.63;5228181;28;20048;-72
2022/07/21 04:42:36;;;;;;;8.02;3.65;;;21.00;99.90;;;21.50;100.00;101186.16;5228217;28;20047;-72
2022/07/21 04:45:12;;;;;;;5.03;3.38;;;21.00;99.90;;;21.52;100.00;101179.09;5228166;28;20413;-72
2022/07/21 04:47:46;;;;;;;5.82;3.35;;;21.10;99.90;;;21.53;100.00;101184.38;5228191;28;20041;-72
2022/07/21 04:50:20;;;;;;;6.85;3.83;;;21.10;99.90;;;21.55;100.00;101187.03;5228225;28;20055;-73
2022/07/21 04:52:53;;;;;;;8.52;3.92;;;21.10;99.90;;;21.61;100.00;101189.66;5227772;28;20037;-71
2022/07/21 04:55:26;;;;;;;5.93;3.50;;;21.10;99.90;;;21.70;100.00;101188.72;5227761;28;20068;-72
2022/07/21 04:57:59;;;;;;;5.78;3.47;;;21.20;99.90;;;21.75;100.00;101192.25;5227717;28;20040;-72
2022/07/21 05:00:32;;;;;;;6.85;3.88;;;21.30;99.90;;;21.77;100.00;101196.63;5227720;28;20409;-72
2022/07/21 05:03:04;;;;;;;6.50;3.78;;;21.30;99.90;;;21.79;100.00;101200.19;5227860;28;20486;-73
2022/07/21 05:05:36;;;;;;;7.25;3.90;;;21.30;99.90;;;21.88;100.00;101213.41;5227756;28;20065;-71
2022/07/21 05:08:08;;;;;;;6.32;3.50;;;21.40;99.90;;;21.97;100.00;101215.13;5227583;28;20044;-73
2022/07/21 05:10:40;;;;;;;6.57;3.58;;;21.50;99.90;;;22.11;100.00;101221.28;5227556;28;20494;-72
2022/07/21 05:13:14;;;;;;;8.23;4.68;;;21.60;99.90;;;22.26;100.00;101224.72;5227541;28;20072;-72
2022/07/21 05:15:46;;;;;;;9.75;4.90;;;21.70;99.90;;;22.27;100.00;101223.84;5227594;28;20501;-72
2022/07/21 05:18:18;;;;;;;7.50;4.30;;;21.70;99.90;;;22.23;100.00;101232.69;5227592;28;20299;-71
2022/07/21 05:20:50;;;;;;;6.90;3.70;;;21.70;99.90;;;22.19;100.00;101234.50;5227347;28;20432;-72
2022/07/21 05:23:22;;;;;;;6.85;3.97;;;21.70;99.90;;;22.18;100.00;101241.59;5227190;28;20052;-73
2022/07/21 05:25:54;;;;;;;6.60;3.80;;;21.70;99.90;;;22.15;100.00;101230.97;5227472;28;20515;-72
2022/07/21 05:28:29;;;;;;;6.05;3.78;;;21.70;99.90;;;22.15;100.00;101232.75;5227483;28;20098;-72
2022/07/21 05:31:02;;;;;;;6.35;3.60;;;21.70;99.90;;;22.11;100.00;101237.22;5227140;28;20040;-73
2022/07/21 05:33:34;;;;;;;6.78;4.00;;;21.60;99.90;;;22.11;100.00;101234.56;5227484;28;20174;-73
2022/07/21 05:36:07;;;;;;;6.80;3.28;;;21.60;99.90;;;22.12;100.00;101240.75;5227189;28;20048;-72
2022/07/21 05:38:40;;;;;;;4.50;3.25;;;21.60;99.90;;;22.11;100.00;101241.66;5226957;28;20045;-72
2022/07/21 05:41:12;;;;;;;6.13;3.70;;;21.60;99.90;;;22.08;100.00;101245.16;5227021;28;20079;-71
2022/07/21 05:43:45;;;;;;;7.45;3.80;;;21.60;99.90;;;22.05;100.00;101244.28;5225817;28;20148;-72
2022/07/21 05:46:18;;;;;;;7.88;3.92;;;21.60;99.90;;;21.99;100.00;101249.63;5226955;28;20405;-71
2022/07/21 05:48:50;;;;;;;6.30;3.33;;;21.50;99.90;;;21.94;100.00;101236.38;5226946;28;20115;-72
2022/07/21 05:51:22;;;;;;;5.13;3.35;;;21.50;99.90;;;21.91;100.00;101245.25;5226871;28;20040;-71
2022/07/21 05:53:54;;;;;;;6.00;3.72;;;21.50;99.90;;;21.87;100.00;101243.50;5225071;28;20045;-70
2022/07/21 05:56:26;;;;;;;6.53;3.45;;;21.40;99.90;;;21.83;100.00;101241.72;5226843;28;20052;-71
2022/07/21 05:59:00;;;;;;;6.07;3.90;;;21.40;99.90;;;21.78;100.00;101251.50;5225564;28;20051;-72
2022/07/21 06:01:32;;;;;;;7.70;4.05;;;21.30;99.90;;;21.76;100.00;101241.75;5226991;28;20448;-72
2022/07/21 06:04:05;;;;;;;6.07;4.00;;;21.30;99.90;;;21.74;100.00;101248.84;5227027;28;20059;-73
2022/07/21 06:06:37;;;;;;;7.35;3.95;;;21.30;99.90;;;21.70;100.00;101258.59;5226924;28;20104;-73
2022/07/21 06:09:09;;;;;;;7.40;3.97;;;21.30;99.90;;;21.64;100.00;101259.47;5226999;28;20124;-73
2022/07/21 06:11:42;;;;;;;7.20;4.07;;;21.20;99.90;;;21.60;100.00;101264.81;5226838;28;20045;-73
2022/07/21 06:14:15;;;;;;;6.57;4.07;;;21.20;99.90;;;21.56;100.00;101271.00;5225504;28;20044;-73
2022/07/21 06:16:48;;;;;;;8.00;4.28;;;21.10;99.90;;;21.51;100.00;101268.38;5226933;28;20662;-72
2022/07/21 06:19:20;;;;;;;7.75;4.38;;;21.10;99.90;;;21.47;100.00;101265.75;5226539;28;20056;-73
2022/07/21 06:21:52;;;;;;;9.02;5.65;;;21.00;99.90;;;21.43;100.00;101271.94;5226462;28;20119;-73
2022/07/21 06:24:26;;;;;;;7.68;4.90;;;21.00;99.90;;;21.42;100.00;101264.88;5225263;28;20052;-72
2022/07/21 06:26:58;;;;;;;7.57;4.57;;;21.00;99.90;;;21.38;100.00;101262.22;5226397;28;20136;-73
2022/07/21 06:29:32;;;;;;;7.65;4.53;;;21.00;99.90;;;21.34;100.00;101268.41;5225300;28;20087;-73
2022/07/21 06:32:05;;;;;;;7.65;4.43;;;20.90;99.90;;;21.32;100.00;101262.25;5226786;28;20606;-74
2022/07/21 06:34:37;;;;;;;7.10;4.10;;;20.80;99.90;;;21.29;100.00;101262.25;5226586;28;20040;-73
2022/07/21 06:37:09;;;;;;;6.30;3.63;;;20.90;99.90;;;21.32;100.00;101256.94;5226265;28;20045;-71
2022/07/21 06:39:41;;;;;;;6.20;3.88;;;20.90;99.90;;;21.37;100.00;101257.78;5225182;28;20041;-71
2022/07/21 06:42:13;;;;;;;6.38;3.67;;;20.90;99.90;;;21.48;100.00;101244.53;5226117;28;20041;-70
2022/07/21 06:44:49;;;;;;;5.38;3.65;;;21.00;99.90;;;21.57;100.00;101247.13;5224802;28;20043;-70
2022/07/21 06:47:21;;;;;;;7.28;3.97;;;21.10;99.90;;;21.68;100.00;101240.03;5226167;28;20068;-70
2022/07/21 06:49:53;;;;;;;7.95;4.07;;;21.20;99.90;;;21.80;100.00;101239.09;5226136;28;20041;-71
2022/07/21 06:52:25;;;;;;;8.68;4.63;;;21.30;99.90;;;21.91;100.00;101225.78;5226046;28;20426;-70
2022/07/21 06:54:57;;;;;;;6.88;4.05;;;21.40;99.90;;;21.97;100.00;101220.41;5226381;28;20041;-70
2022/07/21 06:57:30;;;;;;;7.00;3.75;;;21.50;99.90;;;22.05;100.00;101223.94;5225650;28;20059;-73
2022/07/21 07:00:06;;;;;;;7.07;3.90;;;21.60;99.90;;;22.12;100.00;101224.81;5225869;28;20037;-74
2022/07/21 07:02:38;;;;;;;7.07;4.05;;;21.60;99.90;;;22.24;100.00;101229.19;5197044;28;20059;-74
2022/07/21 07:05:10;;;;;;;5.93;3.42;;;21.70;99.90;;;22.30;100.00;101238.00;5218151;28;20049;-74
2022/07/21 07:07:43;;;;;;;7.78;3.72;;;21.80;99.90;;;22.40;100.00;101229.06;5224720;28;20122;-74
2022/07/21 07:10:15;;;;;;;8.27;3.90;;;21.90;99.90;;;22.47;100.00;101238.72;5229694;28;20382;-75
2022/07/21 07:12:47;;;;;;;8.27;4.22;;;21.90;99.90;;;22.57;100.00;101238.69;5229721;28;20116;-75
2022/07/21 07:15:22;;;;;;;8.38;4.53;;;22.00;99.90;;;22.63;100.00;101238.66;5229876;28;20052;-74
2022/07/21 07:17:55;;;;;;;9.15;4.45;;;22.10;99.90;;;22.64;100.00;101235.09;5228017;28;20441;-56
2022/07/21 07:20:27;;;;;;;9.05;4.18;;;22.10;99.90;;;22.56;100.00;101252.84;5229525;28;20057;-56
2022/07/21 07:22:59;;;;;;;5.65;3.40;;;22.10;99.90;;;22.61;100.00;101261.66;5229591;28;20389;-56
2022/07/21 07:25:31;;;;;;;6.10;3.67;;;22.10;99.90;;;22.86;100.00;101265.94;5229359;28;20045;-56
2022/07/21 07:28:05;;;;;;;12.07;4.65;;;22.20;99.90;;;23.25;100.00;101267.34;5229353;28;20557;-55
2022/07/21 07:30:38;;;;;;;10.10;4.18;;;22.50;99.90;;;23.66;100.00;101267.81;5229725;28;20107;-55
2022/07/21 07:33:11;;;;;;;9.32;4.13;;;22.80;99.90;;;24.01;100.00;101270.94;5225094;28;20436;-56
2022/07/21 07:35:43;;;;;;;9.35;3.92;;;23.20;99.90;;;24.28;100.00;101268.81;5228142;28;20052;-56
2022/07/21 07:38:15;;;;;;;7.93;3.85;;;23.40;99.90;;;24.46;97.99;101268.56;5229133;28;20494;-56
2022/07/21 07:40:47;;;;;;;6.68;3.03;;;23.60;99.90;;;24.47;94.21;101270.34;5227606;28;20033;-56
2022/07/21 07:43:20;;;;;;;5.25;2.65;;;23.70;99.90;;;24.34;93.02;101264.31;5229121;28;20690;-56
2022/07/21 07:45:53;;;;;;;5.43;2.80;;;23.60;99.90;;;24.27;93.21;101262.59;5229221;28;20124;-72
2022/07/21 07:48:25;;;;;;;8.43;3.17;;;23.60;99.90;;;24.33;94.72;101262.53;5228527;28;20126;-72
2022/07/21 07:50:57;;;;;;;6.05;3.35;;;23.60;99.90;;;24.50;94.98;101258.72;5228918;28;20041;-73
2022/07/21 07:53:30;;;;;;;6.57;3.63;;;23.70;99.90;;;24.62;93.72;101251.44;5229096;28;20056;-72
2022/07/21 07:56:02;;;;;;;6.00;3.47;;;23.80;99.90;;;24.67;93.52;101245.16;5228936;28;20037;-72
2022/07/21 07:58:35;;;;;;;6.53;3.50;;;23.80;99.90;;;24.85;93.83;101251.06;5228730;28;20052;-72
2022/07/21 08:01:09;;;;;;;4.88;3.28;;;24.00;99.90;;;25.09;93.59;101254.22;5227486;28;20056;-68
2022/07/21 08:03:41;;;;;;;6.47;3.28;;;24.20;99.90;;;25.51;92.36;101257.00;5228857;28;20141;-72
2022/07/21 08:06:13;;;;;;;7.85;3.50;;;24.50;99.90;;;25.87;91.04;101263.41;5226973;28;20056;-72
2022/07/21 08:08:45;;;;;;;6.95;3.75;;;24.70;99.90;;;26.17;86.92;101254.75;5220558;28;20041;-74
2022/07/21 08:11:17;;;;;;;8.25;3.78;;;25.00;99.90;;;26.52;84.87;101250.41;5225615;28;20049;-72
2022/07/21 08:13:50;;;;;;;4.70;3.17;;;25.30;99.90;;;26.96;83.90;101251.97;5228622;28;20501;-73
2022/07/21 08:16:23;;;;;;;5.22;3.03;;;25.60;99.90;;;27.30;79.16;101246.63;5228295;28;20466;-73
2022/07/21 08:18:55;;;;;;;4.75;2.85;;;25.90;99.90;;;27.71;77.82;101247.31;5225914;28;20518;-75
2022/07/21 08:21:30;;;;;;;5.97;2.95;;;26.10;99.90;;;28.23;75.44;101242.16;5220106;28;20055;-73
2022/07/21 08:24:03;;;;;;;6.05;3.00;;;26.50;99.30;;;28.61;73.14;101246.31;5228381;28;20497;-74
2022/07/21 08:26:36;;;;;;;3.58;2.60;;;26.70;98.30;;;28.51;73.90;101248.44;5160572;28;20064;-72
2022/07/21 08:29:08;;;;;;;3.10;2.50;;;26.80;98.20;;;28.26;74.97;101263.53;5242437;28;20045;-73
2022/07/21 08:31:41;;;;;;;4.63;2.83;;;26.70;98.40;;;27.85;75.34;101268.34;5214853;28;20116;-73
2022/07/21 08:34:13;;;;;;;3.72;2.90;;;26.50;98.00;;;27.43;77.14;101259.69;5207675;28;20041;-74
2022/07/21 08:36:46;;;;;;;3.42;2.38;;;26.30;98.40;;;27.24;77.29;101251.28;5207426;28;20046;-73
2022/07/21 08:39:18;;;;;;;3.70;2.75;;;26.10;98.40;;;27.62;75.13;101247.53;5207256;28;20041;-72
2022/07/21 08:41:52;;;;;;;4.25;2.70;;;26.10;98.20;;;28.57;72.58;101244.69;5205972;28;20075;-75
2022/07/21 08:44:25;;;;;;;3.35;2.60;;;26.50;97.90;;;29.22;70.53;101249.66;5207390;28;20497;-74
2022/07/21 08:46:59;;;;;;;3.88;2.63;;;26.90;97.40;;;29.14;70.96;101254.38;5207398;28;20451;-72
2022/07/21 08:49:33;;;;;;;3.05;2.60;;;27.00;97.30;;;29.53;69.53;101265.53;5207156;28;20124;-73
2022/07/21 08:52:08;;;;;;;4.13;2.67;;;27.30;97.00;;;29.16;68.65;101260.59;5207355;28;20080;-75
2022/07/21 08:54:40;;;;;;;3.60;2.63;;;27.20;95.70;;;28.55;69.82;101251.88;5238034;28;20148;-72
2022/07/21 08:57:12;;;;;;;3.53;2.40;;;27.00;95.50;;;28.20;71.06;101263.72;5220653;28;20045;-73
2022/07/21 08:59:44;;;;;;;3.78;2.70;;;26.80;95.70;;;28.04;71.72;101268.69;5219122;28;20052;-73
2022/07/21 09:02:30;;;;;;;3.30;2.65;;;26.70;95.90;;;27.81;72.23;101269.34;5226064;28;20055;-72
2022/07/21 09:05:04;;;;;;;3.85;2.78;;;26.50;96.20;;;27.46;73.36;101267.66;5227179;28;20103;-73
2022/07/21 09:07:51;;;;;;;3.63;2.47;;;26.30;96.20;;;27.07;73.93;101256.22;5227241;28;20063;-72
2022/07/21 09:10:25;;;;;;;3.53;2.58;;;26.10;96.20;;;26.85;74.78;101258.50;5208783;28;20049;-73
2022/07/21 09:13:01;;;;;;;3.47;2.53;;;25.90;96.40;;;27.01;75.68;101262.56;5231892;28;20063;-73
2022/07/21 09:15:34;;;;;;;4.18;2.63;;;25.90;96.90;;;27.19;74.11;101259.44;5225755;28;20418;-74
2022/07/21 09:18:12;;;;;;;3.60;2.30;;;25.90;96.60;;;27.09;73.88;101251.69;5225369;28;20045;-73
2022/07/21 09:20:49;;;;;;;4.15;2.60;;;25.90;96.50;;;27.01;74.22;101247.38;5225215;28;20064;-73
2022/07/21 09:23:24;;;;;;;3.45;2.50;;;25.80;96.40;;;27.02;73.44;101250.94;5222906;28;20099;-73
2022/07/21 09:25:58;;;;;;;3.50;2.53;;;25.80;96.20;;;27.49;72.74;101267.53;5217858;28;20055;-73
2022/07/21 09:28:31;;;;;;;3.28;2.45;;;26.10;96.30;;;28.48;68.39;101267.28;5226164;28;20041;-73
2022/07/21 09:31:06;;;;;;;4.43;2.70;;;26.60;95.30;;;29.07;65.69;101261.78;5225127;28;20494;-73
2022/07/21 09:33:43;;;;;;;4.97;2.47;;;27.20;93.90;;;29.08;64.88;101265.34;5225262;28;20072;-74
2022/07/21 09:36:18;;;;;;;3.67;2.50;;;27.40;92.80;;;28.86;64.53;101271.41;5224129;28;20486;-73
2022/07/21 09:38:54;;;;;;;4.35;2.53;;;27.40;92.10;;;28.60;65.25;101257.97;5225342;28;20040;-73
2022/07/21 09:41:28;;;;;;;4.40;2.63;;;27.40;91.90;;;28.41;65.99;101272.91;5227083;28;20132;-73
2022/07/21 09:44:00;;;;;;;3.67;2.53;;;27.30;92.20;;;28.13;66.03;101263.91;5221721;28;20053;-72
2022/07/21 09:46:33;;;;;;;5.15;2.80;;;27.10;91.70;;;27.94;66.05;101260.00;5226580;28;20068;-72
2022/07/21 09:49:07;;;;;;;3.38;2.60;;;27.00;91.60;;;27.79;66.88;101261.34;5226832;28;20072;-72
2022/07/21 09:51:41;;;;;;;3.03;2.50;;;26.80;91.70;;;27.74;67.33;101263.28;5226701;28;20049;-73
2022/07/21 09:54:14;;;;;;;3.75;2.63;;;26.70;92.00;;;27.70;67.38;101266.97;5221352;28;20089;-70
2022/07/21 09:56:47;;;;;;;3.95;2.67;;;26.70;91.90;;;27.75;68.08;101262.34;5219716;28;20080;-67
2022/07/21 09:59:20;;;;;;;4.05;2.85;;;26.70;92.50;;;27.72;67.88;101259.78;5207694;28;20140;-56
2022/07/21 10:01:52;;;;;;;7.07;2.83;;;26.70;92.00;;;27.58;67.72;101264.59;5226065;28;20075;-56
2022/07/21 10:04:26;;;;;;;4.00;2.28;;;26.70;91.90;;;27.45;67.77;101260.50;5225293;28;20131;-57
2022/07/21 10:06:59;;;;;;;3.80;2.70;;;26.50;91.70;;;27.35;67.94;101256.34;5226460;28;20055;-56
2022/07/21 10:09:32;;;;;;;4.82;2.78;;;26.40;91.70;;;27.29;67.90;101260.94;5290125;22;20064;-55
2022/07/21 10:12:04;;;;;;;3.30;2.67;;;26.40;91.80;;;27.28;67.78;101263.66;5225051;28;20519;-56
2022/07/21 10:14:37;;;;;;;4.07;3.00;;;26.30;91.70;;;27.24;67.55;101270.00;5226345;28;20049;-54
2022/07/21 10:17:09;;;;;;;3.65;2.67;;;26.30;91.60;;;27.18;67.74;101265.69;5225260;28;20056;-54
2022/07/21 10:20:00;;;;;;;3.70;2.65;;;26.20;91.50;;;27.14;67.87;101260.47;5226426;28;20117;-54
2022/07/21 10:22:55;;;;;;;4.10;2.75;;;26.20;91.60;;;27.18;68.16;101263.00;5226440;28;20045;-54
2022/07/21 10:25:27;;;;;;;4.20;3.03;;;26.20;91.70;;;27.23;68.06;101265.56;5226646;28;20033;-55
2022/07/21 10:28:22;;;;;;;3.38;2.55;;;26.20;91.70;;;27.05;68.14;101265.13;5226337;28;20053;-54
2022/07/21 10:30:57;;;;;;;3.83;2.72;;;26.20;91.60;;;26.88;68.83;101264.66;5226323;28;20111;-55
2022/07/21 10:33:54;;;;;;;6.05;3.15;;;26.10;91.70;;;26.75;69.17;101264.09;5226531;28;20045;-55
2022/07/21 10:36:46;;;;;;;6.03;3.10;;;26.00;91.80;;;26.67;69.40;101255.41;5226228;28;20048;-56